createdAt,value
2018-07-05T00:00:48.673Z,-50
2018-07-05T00:02:01.165Z,-50
2018-07-05T00:02:58.952Z,-50
2018-07-05T00:03:56.494Z,-50
2018-07-05T00:04:54.044Z,-52
2018-07-05T00:05:53.897Z,-52
2018-07-05T00:06:53.579Z,-50
2018-07-05T00:07:55.543Z,-50
2018-07-05T00:08:55.039Z,-50
2018-07-05T00:09:56.458Z,-50
2018-07-05T00:10:54.132Z,-50
2018-07-05T00:11:54.141Z,-50
2018-07-05T00:12:55.679Z,-50
2018-07-05T00:13:52.752Z,-50
2018-07-05T00:14:52.815Z,-50
2018-07-05T00:15:49.249Z,-50
2018-07-05T00:16:47.100Z,-50
2018-07-05T00:17:44.884Z,-50
2018-07-05T00:18:42.653Z,-51
2018-07-05T00:20:58.373Z,-51
2018-07-05T00:21:59.337Z,-50
2018-07-05T00:22:54.954Z,-50
2018-07-05T00:23:59.269Z,-50
2018-07-05T00:24:59.141Z,-51
2018-07-05T00:26:12.174Z,-50
2018-07-05T00:27:17.349Z,-50
2018-07-05T00:28:15.438Z,-50
2018-07-05T00:29:26.809Z,-50
2018-07-05T00:30:24.728Z,-50
2018-07-05T00:31:24.726Z,-50
2018-07-05T00:32:22.926Z,-50
2018-07-05T00:33:27.505Z,-50
2018-07-05T00:34:23.033Z,-51
2018-07-05T00:35:21.116Z,-50
2018-07-05T00:36:22.156Z,-50
2018-07-05T00:38:29.025Z,-51
2018-07-05T00:39:25.390Z,-50
2018-07-05T00:40:26.928Z,-51
2018-07-05T00:41:22.174Z,-51
2018-07-05T00:42:21.192Z,-50
2018-07-05T00:43:19.261Z,-50
2018-07-05T00:44:20.161Z,-52
2018-07-05T00:45:18.719Z,-51
2018-07-05T00:46:17.684Z,-52
2018-07-05T00:48:26.088Z,-51
2018-07-05T00:49:22.826Z,-52
2018-07-05T00:50:20.439Z,-52
2018-07-05T00:51:21.141Z,-52
2018-07-05T00:52:27.823Z,-52
2018-07-05T00:53:24.539Z,-51
2018-07-05T00:54:33.564Z,-52
2018-07-05T00:55:42.067Z,-51
2018-07-05T00:56:48.373Z,-51
2018-07-05T00:57:52.384Z,-51
2018-07-05T01:00:19.369Z,-52
2018-07-05T01:01:21.162Z,-51
2018-07-05T01:02:24.819Z,-51
2018-07-05T01:03:23.770Z,-52
2018-07-05T01:04:19.427Z,-51
2018-07-05T01:05:17.792Z,-51
2018-07-05T01:06:20.119Z,-53
2018-07-05T01:07:21.274Z,-51
2018-07-05T01:08:17.548Z,-51
2018-07-05T01:09:18.772Z,-51
2018-07-05T01:10:17.590Z,-51
2018-07-05T01:12:33.489Z,-52
2018-07-05T01:13:31.339Z,-51
2018-07-05T01:14:31.207Z,-51
2018-07-05T01:15:26.178Z,-51
2018-07-05T01:16:28.790Z,-52
2018-07-05T01:17:25.158Z,-50
2018-07-05T01:18:23.966Z,-51
2018-07-05T01:19:32.201Z,-50
2018-07-05T01:20:32.972Z,-50
2018-07-05T01:22:42.564Z,-50
2018-07-05T01:23:41.546Z,-50
2018-07-05T01:24:39.469Z,-50
2018-07-05T01:25:34.951Z,-50
2018-07-05T01:26:35.550Z,-50
2018-07-05T01:27:40.573Z,-54
2018-07-05T01:28:38.984Z,-50
2018-07-05T01:29:40.016Z,-50
2018-07-05T01:30:42.082Z,-50
2018-07-05T01:31:40.948Z,-50
2018-07-05T01:32:46.727Z,-50
2018-07-05T01:33:50.814Z,-51
2018-07-05T01:34:55.080Z,-50
2018-07-05T01:37:08.240Z,-51
2018-07-05T01:38:12.526Z,-51
2018-07-05T01:39:30.740Z,-51
2018-07-05T01:40:26.444Z,-51
2018-07-05T01:41:26.282Z,-50
2018-07-05T01:42:30.662Z,-50
2018-07-05T01:43:29.421Z,-50
2018-07-05T01:44:27.841Z,-51
2018-07-05T01:45:33.985Z,-50
2018-07-05T01:46:38.373Z,-52
2018-07-05T01:47:35.889Z,-51
2018-07-05T01:48:33.073Z,-53
2018-07-05T01:49:32.557Z,-51
2018-07-05T01:50:31.574Z,-52
2018-07-05T01:51:30.330Z,-52
2018-07-05T01:52:28.762Z,-51
2018-07-05T01:53:27.876Z,-51
2018-07-05T01:55:37.797Z,-52
2018-07-05T01:56:41.627Z,-51
2018-07-05T01:57:41.411Z,-51
2018-07-05T01:58:41.837Z,-51
2018-07-05T01:59:41.125Z,-50
2018-07-05T02:00:41.079Z,-50
2018-07-05T02:01:43.371Z,-50
2018-07-05T02:02:46.167Z,-50
2018-07-05T02:03:57.639Z,-50
2018-07-05T02:04:57.752Z,-50
2018-07-05T02:05:56.553Z,-50
2018-07-05T02:06:53.981Z,-50
2018-07-05T02:09:09.698Z,-51
2018-07-05T02:10:07.477Z,-50
2018-07-05T02:11:07.704Z,-51
2018-07-05T02:12:14.539Z,-52
2018-07-05T02:13:13.642Z,-51
2018-07-05T02:14:12.260Z,-50
2018-07-05T02:15:14.597Z,-51
2018-07-05T02:16:14.675Z,-51
2018-07-05T02:17:13.587Z,-50
2018-07-05T02:19:23.352Z,-50
2018-07-05T02:20:20.750Z,-50
2018-07-05T02:21:23.490Z,-50
2018-07-05T02:22:26.175Z,-51
2018-07-05T02:23:24.525Z,-50
2018-07-05T02:24:24.204Z,-50
2018-07-05T02:25:29.097Z,-52
2018-07-05T02:26:27.332Z,-50
2018-07-05T02:27:28.500Z,-50
2018-07-05T02:28:27.748Z,-50
2018-07-05T02:30:33.074Z,-51
2018-07-05T02:31:30.924Z,-50
2018-07-05T02:32:39.265Z,-50
2018-07-05T02:33:44.662Z,-50
2018-07-05T02:34:42.291Z,-51
2018-07-05T02:35:37.901Z,-51
2018-07-05T02:36:35.665Z,-51
2018-07-05T02:37:34.724Z,-51
2018-07-05T02:38:35.456Z,-50
2018-07-05T02:39:34.453Z,-51
2018-07-05T02:40:47.036Z,-50
2018-07-05T02:41:41.361Z,-50
2018-07-05T02:42:38.491Z,-50
2018-07-05T02:43:38.588Z,-51
2018-07-05T02:44:34.838Z,-51
2018-07-05T02:45:35.245Z,-50
2018-07-05T02:47:46.700Z,-51
2018-07-05T02:48:51.327Z,-51
2018-07-05T02:49:48.816Z,-50
2018-07-05T02:50:53.475Z,-50
2018-07-05T02:51:52.502Z,-50
2018-07-05T02:52:50.997Z,-50
2018-07-05T02:53:47.528Z,-50
2018-07-05T02:54:50.986Z,-49
2018-07-05T02:55:46.301Z,-51
2018-07-05T02:56:48.459Z,-50
2018-07-05T02:57:53.711Z,-50
2018-07-05T03:00:09.984Z,-52
2018-07-05T03:01:12.074Z,-50
2018-07-05T03:02:09.222Z,-51
2018-07-05T03:03:03.523Z,-51
2018-07-05T03:04:06.484Z,-49
2018-07-05T03:05:11.133Z,-50
2018-07-05T03:06:07.410Z,-50
2018-07-05T03:07:07.669Z,-51
2018-07-05T03:08:06.443Z,-51
2018-07-05T03:10:28.849Z,-52
2018-07-05T03:11:26.674Z,-58
2018-07-05T03:12:22.925Z,-50
2018-07-05T03:13:23.063Z,-50
2018-07-05T03:14:20.778Z,-49
2018-07-05T03:15:21.035Z,-50
2018-07-05T03:16:23.981Z,-50
2018-07-05T03:17:22.731Z,-50
2018-07-05T03:18:26.799Z,-50
2018-07-05T03:19:21.384Z,-50
2018-07-05T03:20:25.944Z,-50
2018-07-05T03:22:33.752Z,-50
2018-07-05T03:23:31.978Z,-50
2018-07-05T03:24:35.627Z,-50
2018-07-05T03:25:36.639Z,-50
2018-07-05T03:26:34.082Z,-50
2018-07-05T03:27:34.467Z,-49
2018-07-05T03:28:38.835Z,-49
2018-07-05T03:29:38.990Z,-53
2018-07-05T03:30:43.214Z,-53
2018-07-05T03:31:42.425Z,-50
2018-07-05T03:32:43.001Z,-50
2018-07-05T03:33:40.692Z,-49
2018-07-05T03:35:57.724Z,-51
2018-07-05T03:36:57.313Z,-50
2018-07-05T03:37:56.152Z,-50
2018-07-05T03:38:50.457Z,-50
2018-07-05T03:39:47.571Z,-50
2018-07-05T03:40:46.514Z,-50
2018-07-05T03:41:51.905Z,-50
2018-07-05T03:42:49.081Z,-50
2018-07-05T03:43:46.935Z,-50
2018-07-05T03:44:47.352Z,-51
2018-07-05T03:45:43.400Z,-50
2018-07-05T03:46:43.517Z,-50
2018-07-05T03:47:40.473Z,-50
2018-07-05T03:48:42.546Z,-50
2018-07-05T03:50:53.877Z,-50
2018-07-05T03:51:56.338Z,-49
2018-07-05T03:52:56.872Z,-50
2018-07-05T03:54:01.156Z,-50
2018-07-05T03:55:05.137Z,-50
2018-07-05T03:56:00.679Z,-50
2018-07-05T03:57:06.873Z,-50
2018-07-05T03:58:06.743Z,-51
2018-07-05T03:59:04.589Z,-50
2018-07-05T04:00:01.158Z,-50
2018-07-05T04:00:59.252Z,-49
2018-07-05T04:02:00.071Z,-50
2018-07-05T04:04:09.707Z,-51
2018-07-05T04:05:08.336Z,-50
2018-07-05T04:06:03.661Z,-51
2018-07-05T04:06:38.337Z,-51
2018-07-05T04:07:50.574Z,-51
2018-07-05T04:08:52.060Z,-50
2018-07-05T04:09:57.378Z,-49
2018-07-05T04:11:10.821Z,-50
2018-07-05T04:12:11.161Z,-50
2018-07-05T04:13:08.408Z,-51
2018-07-05T04:14:09.409Z,-50
2018-07-05T04:15:11.266Z,-50
2018-07-05T04:16:08.911Z,-50
2018-07-05T04:18:20.077Z,-51
2018-07-05T04:19:20.671Z,-50
2018-07-05T04:20:24.191Z,-50
2018-07-05T04:21:22.933Z,-50
2018-07-05T04:22:21.101Z,-51
2018-07-05T04:23:20.652Z,-50
2018-07-05T04:24:25.217Z,-49
2018-07-05T04:25:28.163Z,-50
2018-07-05T04:26:23.966Z,-51
2018-07-05T04:27:26.848Z,-50
2018-07-05T04:28:27.090Z,-50
2018-07-05T04:29:22.046Z,-50
2018-07-05T04:31:36.558Z,-50
2018-07-05T04:32:44.188Z,-50
2018-07-05T04:33:39.687Z,-51
2018-07-05T04:34:37.350Z,-50
2018-07-05T04:35:41.445Z,-50
2018-07-05T04:36:44.648Z,-50
2018-07-05T04:37:45.944Z,-50
2018-07-05T04:38:42.247Z,-50
2018-07-05T04:39:40.169Z,-50
2018-07-05T04:40:42.500Z,-50
2018-07-05T04:41:42.933Z,-51
2018-07-05T04:42:40.654Z,-50
2018-07-05T04:43:42.008Z,-51
2018-07-05T04:44:40.467Z,-50
2018-07-05T04:45:45.918Z,-50
2018-07-05T04:46:45.461Z,-50
2018-07-05T04:47:47.061Z,-50
2018-07-05T04:48:46.383Z,-50
2018-07-05T04:49:48.632Z,-50
2018-07-05T04:50:48.432Z,-49
2018-07-05T04:52:57.963Z,-50
2018-07-05T04:53:55.476Z,-50
2018-07-05T04:54:59.634Z,-49
2018-07-05T04:55:56.144Z,-50
2018-07-05T04:56:56.253Z,-50
2018-07-05T04:57:58.290Z,-50
2018-07-05T04:58:55.990Z,-49
2018-07-05T04:59:56.763Z,-50
2018-07-05T05:00:58.203Z,-49
2018-07-05T05:01:56.543Z,-49
2018-07-05T05:02:59.069Z,-49
2018-07-05T05:03:56.333Z,-50
2018-07-05T05:06:23.743Z,-51
2018-07-05T05:07:21.967Z,-50
2018-07-05T05:08:25.118Z,-50
2018-07-05T05:09:20.627Z,-50
2018-07-05T05:10:28.536Z,-51
2018-07-05T05:11:23.759Z,-50
2018-07-05T05:12:25.018Z,-49
2018-07-05T05:13:32.142Z,-50
2018-07-05T05:14:27.527Z,-50
2018-07-05T05:15:28.769Z,-50
2018-07-05T05:16:28.527Z,-50
2018-07-05T05:17:28.319Z,-50
2018-07-05T05:18:29.179Z,-50
2018-07-05T05:19:33.993Z,-49
2018-07-05T05:20:31.740Z,-50
2018-07-05T05:21:36.314Z,-49
2018-07-05T05:22:33.045Z,-50
2018-07-05T05:23:35.100Z,-50
2018-07-05T05:24:36.786Z,-49
2018-07-05T05:26:52.643Z,-51
2018-07-05T05:27:51.303Z,-51
2018-07-05T05:28:53.152Z,-50
2018-07-05T05:29:56.245Z,-50
2018-07-05T05:30:51.718Z,-50
2018-07-05T05:31:50.818Z,-51
2018-07-05T05:32:54.050Z,-50
2018-07-05T05:33:51.297Z,-50
2018-07-05T05:34:49.062Z,-49
2018-07-05T05:35:47.387Z,-51
2018-07-05T05:36:48.364Z,-50
2018-07-05T05:37:49.257Z,-50
2018-07-05T05:38:44.722Z,-51
2018-07-05T05:39:48.545Z,-52
2018-07-05T05:40:55.167Z,-51
2018-07-05T05:41:56.250Z,-50
2018-07-05T05:42:52.692Z,-50
2018-07-05T05:45:05.225Z,-52
2018-07-05T05:46:07.111Z,-54
2018-07-05T05:47:05.925Z,-50
2018-07-05T05:48:11.937Z,-50
2018-07-05T05:49:13.344Z,-51
2018-07-05T05:50:12.147Z,-50
2018-07-05T05:51:08.546Z,-50
2018-07-05T05:52:16.189Z,-50
2018-07-05T05:53:23.107Z,-51
2018-07-05T05:54:22.711Z,-51
2018-07-05T05:55:20.519Z,-50
2018-07-05T05:56:20.858Z,-54
2018-07-05T05:57:21.300Z,-50
2018-07-05T05:58:20.831Z,-53
2018-07-05T05:59:23.795Z,-51
2018-07-05T06:00:18.897Z,-50
2018-07-05T06:01:19.924Z,-51
2018-07-05T06:02:24.011Z,-51
2018-07-05T06:03:22.408Z,-51
2018-07-05T06:05:32.591Z,-51
2018-07-05T06:06:31.029Z,-51
2018-07-05T06:07:31.605Z,-50
2018-07-05T06:08:32.915Z,-51
2018-07-05T06:09:33.145Z,-50
2018-07-05T06:10:40.683Z,-51
2018-07-05T06:11:40.604Z,-50
2018-07-05T06:12:39.851Z,-50
2018-07-05T06:13:48.715Z,-50
2018-07-05T06:14:47.581Z,-50
2018-07-05T06:15:48.896Z,-50
2018-07-05T06:16:51.201Z,-50
2018-07-05T06:17:51.203Z,-50
2018-07-05T06:18:55.905Z,-50
2018-07-05T06:19:53.314Z,-50
2018-07-05T06:21:57.237Z,-50
2018-07-05T06:22:56.319Z,-50
2018-07-05T06:23:57.745Z,-50
2018-07-05T06:24:52.731Z,-50
2018-07-05T06:25:56.288Z,-50
2018-07-05T06:26:54.016Z,-50
2018-07-05T06:27:49.511Z,-50
2018-07-05T06:28:52.836Z,-50
2018-07-05T06:29:59.637Z,-50
2018-07-05T06:31:02.537Z,-50
2018-07-05T06:33:09.984Z,-51
2018-07-05T06:34:13.186Z,-51
2018-07-05T06:35:14.036Z,-52
2018-07-05T06:36:13.028Z,-53
2018-07-05T06:37:09.129Z,-53
2018-07-05T06:38:14.781Z,-55
2018-07-05T06:39:13.612Z,-53
2018-07-05T06:40:11.101Z,-53
2018-07-05T06:41:12.510Z,-51
2018-07-05T06:42:07.850Z,-50
2018-07-05T06:43:09.437Z,-51
2018-07-05T06:44:07.678Z,-52
2018-07-05T06:46:18.685Z,-51
2018-07-05T06:47:19.106Z,-51
2018-07-05T06:48:17.020Z,-52
2018-07-05T06:49:13.522Z,-51
2018-07-05T06:50:15.719Z,-52
2018-07-05T06:51:11.475Z,-52
2018-07-05T06:52:14.536Z,-51
2018-07-05T06:53:15.472Z,-51
2018-07-05T06:54:16.238Z,-51
2018-07-05T06:55:19.444Z,-51
2018-07-05T06:56:17.217Z,-51
2018-07-05T06:57:12.715Z,-51
2018-07-05T06:58:16.045Z,-51
2018-07-05T06:59:17.486Z,-51
2018-07-05T07:01:29.498Z,-52
2018-07-05T07:02:27.224Z,-52
2018-07-05T07:03:30.981Z,-53
2018-07-05T07:04:26.739Z,-52
2018-07-05T07:05:27.737Z,-52
2018-07-05T07:06:25.099Z,-52
2018-07-05T07:07:24.116Z,-52
2018-07-05T07:08:26.008Z,-53
2018-07-05T07:09:23.156Z,-53
2018-07-05T07:10:22.101Z,-48
2018-07-05T07:11:23.966Z,-54
2018-07-05T07:13:30.936Z,-54
2018-07-05T07:14:28.629Z,-53
2018-07-05T07:15:30.779Z,-54
2018-07-05T07:16:43.360Z,-55
2018-07-05T07:17:41.267Z,-55
2018-07-05T07:18:40.403Z,-53
2018-07-05T07:19:36.501Z,-54
2018-07-05T07:20:34.198Z,-53
2018-07-05T07:21:33.120Z,-53
2018-07-05T07:22:32.043Z,-54
2018-07-05T07:23:34.826Z,-55
2018-07-05T07:25:45.842Z,-54
2018-07-05T07:26:41.943Z,-54
2018-07-05T07:27:42.549Z,-53
2018-07-05T07:28:41.219Z,-53
2018-07-05T07:29:35.665Z,-53
2018-07-05T07:30:38.853Z,-52
2018-07-05T07:31:37.123Z,-53
2018-07-05T07:32:33.261Z,-53
2018-07-05T07:33:33.077Z,-53
2018-07-05T07:34:36.888Z,-52
2018-07-05T07:35:44.616Z,-52
2018-07-05T07:36:40.139Z,-53
2018-07-05T07:37:42.016Z,-54
2018-07-05T07:38:43.009Z,-54
2018-07-05T07:39:43.418Z,-52
2018-07-05T07:41:57.546Z,-53
2018-07-05T07:42:55.495Z,-52
2018-07-05T07:43:52.080Z,-52
2018-07-05T07:45:00.085Z,-51
2018-07-05T07:45:57.941Z,-53
2018-07-05T07:47:01.870Z,-51
2018-07-05T07:47:59.709Z,-53
2018-07-05T07:48:57.488Z,-52
2018-07-05T07:50:01.079Z,-54
2018-07-05T07:52:19.598Z,-54
2018-07-05T07:53:14.829Z,-54
2018-07-05T07:54:15.040Z,-54
2018-07-05T07:55:22.373Z,-53
2018-07-05T07:56:22.807Z,-54
2018-07-05T07:57:23.225Z,-55
2018-07-05T07:58:21.020Z,-54
2018-07-05T07:59:16.386Z,-55
2018-07-05T08:00:16.332Z,-54
2018-07-05T08:01:15.081Z,-53
2018-07-05T08:02:17.335Z,-54
2018-07-05T08:03:16.096Z,-55
2018-07-05T08:04:22.348Z,-55
2018-07-05T08:06:43.236Z,-54
2018-07-05T08:07:39.667Z,-54
2018-07-05T08:08:37.314Z,-53
2018-07-05T08:09:51.090Z,-53
2018-07-05T08:10:47.236Z,-53
2018-07-05T08:11:45.132Z,-54
2018-07-05T08:12:48.272Z,-53
2018-07-05T08:13:51.250Z,-51
2018-07-05T08:14:54.696Z,-52
2018-07-05T08:15:52.566Z,-55
2018-07-05T08:16:48.042Z,-52
2018-07-05T08:17:45.953Z,-50
2018-07-05T08:18:51.519Z,-53
2018-07-05T08:19:50.546Z,-54
2018-07-05T08:21:55.022Z,-52
2018-07-05T08:22:53.529Z,-51
2018-07-05T08:23:56.960Z,-51
2018-07-05T08:24:54.717Z,-51
2018-07-05T08:25:54.783Z,-51
2018-07-05T08:26:54.545Z,-52
2018-07-05T08:27:52.133Z,-51
2018-07-05T08:28:53.444Z,-51
2018-07-05T08:29:54.429Z,-52
2018-07-05T08:30:55.332Z,-53
2018-07-05T08:31:55.464Z,-52
2018-07-05T08:32:55.468Z,-52
2018-07-05T08:33:57.345Z,-53
2018-07-05T08:34:53.593Z,-52
2018-07-05T08:35:56.426Z,-51
2018-07-05T08:38:07.858Z,-52
2018-07-05T08:39:10.826Z,-52
2018-07-05T08:40:11.966Z,-52
2018-07-05T08:41:10.468Z,-52
2018-07-05T08:42:09.636Z,-51
2018-07-05T08:43:24.114Z,-52
2018-07-05T08:44:21.858Z,-53
2018-07-05T08:45:19.682Z,-52
2018-07-05T08:46:24.415Z,-53
2018-07-05T08:47:31.037Z,-52
2018-07-05T08:48:28.913Z,-52
2018-07-05T08:49:24.332Z,-52
2018-07-05T08:50:26.137Z,-53
2018-07-05T08:51:23.964Z,-54
2018-07-05T08:52:21.929Z,-52
2018-07-05T08:53:19.416Z,-51
2018-07-05T08:54:20.972Z,-55
2018-07-05T08:55:21.000Z,-52
2018-07-05T08:56:19.349Z,-52
2018-07-05T08:57:17.136Z,-53
2018-07-05T08:59:28.258Z,-53
2018-07-05T09:00:25.628Z,-53
2018-07-05T09:01:26.350Z,-52
2018-07-05T09:02:27.452Z,-52
2018-07-05T09:03:29.373Z,-54
2018-07-05T09:04:30.353Z,-55
2018-07-05T09:05:29.410Z,-53
2018-07-05T09:06:33.315Z,-53
2018-07-05T09:07:28.700Z,-53
2018-07-05T09:08:30.022Z,-51
2018-07-05T09:10:35.972Z,-52
2018-07-05T09:11:59.817Z,-52
2018-07-05T09:12:57.892Z,-52
2018-07-05T09:14:00.394Z,-52
2018-07-05T09:15:03.563Z,-52
2018-07-05T09:15:58.951Z,-52
2018-07-05T09:16:57.889Z,-50
2018-07-05T09:18:00.612Z,-51
2018-07-05T09:18:55.100Z,-52
2018-07-05T09:19:53.639Z,-52
2018-07-05T09:22:03.211Z,-52
2018-07-05T09:23:02.130Z,-52
2018-07-05T09:24:03.783Z,-53
2018-07-05T09:25:01.643Z,-52
2018-07-05T09:25:58.292Z,-51
2018-07-05T09:27:03.617Z,-51
2018-07-05T09:28:02.947Z,-52
2018-07-05T09:29:03.627Z,-52
2018-07-05T09:29:59.536Z,-53
2018-07-05T09:32:08.848Z,-53
2018-07-05T09:33:06.672Z,-52
2018-07-05T09:34:12.419Z,-52
2018-07-05T09:35:20.256Z,-53
2018-07-05T09:36:15.858Z,-52
2018-07-05T09:37:13.883Z,-53
2018-07-05T09:38:19.243Z,-53
2018-07-05T09:39:25.018Z,-53
2018-07-05T09:40:26.295Z,-52
2018-07-05T09:42:36.476Z,-53
2018-07-05T09:43:34.375Z,-52
2018-07-05T09:44:42.229Z,-52
2018-07-05T09:45:41.732Z,-52
2018-07-05T09:46:46.174Z,-52
2018-07-05T09:47:47.452Z,-53
2018-07-05T09:48:45.331Z,-51
2018-07-05T09:49:44.763Z,-51
2018-07-05T09:50:46.539Z,-51
2018-07-05T09:53:00.816Z,-52
2018-07-05T09:54:11.366Z,-52
2018-07-05T09:55:05.989Z,-52
2018-07-05T09:56:08.077Z,-52
2018-07-05T09:57:06.914Z,-52
2018-07-05T09:58:06.304Z,-51
2018-07-05T09:59:07.790Z,-52
2018-07-05T10:00:11.093Z,-52
2018-07-05T10:01:08.600Z,-51
2018-07-05T10:02:08.642Z,-53
2018-07-05T10:03:08.360Z,-52
2018-07-05T10:04:06.188Z,-51
2018-07-05T10:06:18.544Z,-53
2018-07-05T10:07:17.464Z,-53
2018-07-05T10:08:14.110Z,-53
2018-07-05T10:09:11.924Z,-52
2018-07-05T10:10:23.328Z,-51
2018-07-05T10:11:21.035Z,-53
2018-07-05T10:12:20.676Z,-52
2018-07-05T10:13:22.829Z,-52
2018-07-05T10:14:24.128Z,-52
2018-07-05T10:15:21.951Z,-52
2018-07-05T10:16:20.482Z,-52
2018-07-05T10:18:29.340Z,-52
2018-07-05T10:19:27.380Z,-51
2018-07-05T10:20:25.177Z,-51
2018-07-05T10:21:27.074Z,-51
2018-07-05T10:22:27.610Z,-51
2018-07-05T10:23:27.575Z,-51
2018-07-05T10:24:25.521Z,-51
2018-07-05T10:25:20.537Z,-52
2018-07-05T10:26:25.869Z,-52
2018-07-05T10:27:28.050Z,-53
2018-07-05T10:28:25.757Z,-52
2018-07-05T10:29:21.988Z,-52
2018-07-05T10:31:35.805Z,-53
2018-07-05T10:32:37.414Z,-53
2018-07-05T10:33:38.474Z,-52
2018-07-05T10:34:39.642Z,-53
2018-07-05T10:35:37.005Z,-52
2018-07-05T10:36:40.131Z,-53
2018-07-05T10:37:39.349Z,-53
2018-07-05T10:38:41.822Z,-52
2018-07-05T10:39:36.966Z,-53
2018-07-05T10:40:34.968Z,-53
2018-07-05T10:41:36.998Z,-52
2018-07-05T10:42:36.806Z,-53
2018-07-05T10:43:36.355Z,-54
2018-07-05T10:44:29.587Z,-53
2018-07-05T10:46:36.400Z,-53
2018-07-05T10:47:41.221Z,-53
2018-07-05T10:48:41.707Z,-52
2018-07-05T10:49:42.740Z,-52
2018-07-05T10:50:41.510Z,-52
2018-07-05T10:51:41.583Z,-52
2018-07-05T10:51:59.622Z,-53
2018-07-05T10:52:58.300Z,-51
2018-07-05T10:54:00.725Z,-51
2018-07-05T10:55:06.849Z,-51
2018-07-05T10:56:07.043Z,-52
2018-07-05T10:57:04.848Z,-52
2018-07-05T10:57:59.799Z,-52
2018-07-05T11:00:08.517Z,-53
2018-07-05T11:01:10.407Z,-53
2018-07-05T11:02:09.224Z,-52
2018-07-05T11:03:09.372Z,-52
2018-07-05T11:04:04.569Z,-52
2018-07-05T11:05:06.828Z,-51
2018-07-05T11:06:02.327Z,-52
2018-07-05T11:07:01.965Z,-52
2018-07-05T11:08:02.091Z,-53
2018-07-05T11:09:04.900Z,-52
2018-07-05T11:10:04.249Z,-52
2018-07-05T11:11:07.342Z,-51
2018-07-05T11:12:02.856Z,-52
2018-07-05T11:13:04.784Z,-52
2018-07-05T11:15:20.744Z,-52
2018-07-05T11:16:24.853Z,-52
2018-07-05T11:17:22.109Z,-52
2018-07-05T11:18:24.474Z,-52
2018-07-05T11:19:24.196Z,-52
2018-07-05T11:20:23.731Z,-51
2018-07-05T11:21:30.833Z,-51
2018-07-05T11:22:29.145Z,-52
2018-07-05T11:23:32.994Z,-51
2018-07-05T11:25:37.053Z,-52
2018-07-05T11:26:41.485Z,-51
2018-07-05T11:27:38.665Z,-51
2018-07-05T11:28:47.947Z,-51
2018-07-05T11:29:49.985Z,-52
2018-07-05T11:30:50.051Z,-52
2018-07-05T11:31:51.188Z,-52
2018-07-05T11:32:50.226Z,-52
2018-07-05T11:33:45.723Z,-52
2018-07-05T11:34:43.471Z,-52
2018-07-05T11:35:42.162Z,-52
2018-07-05T11:36:42.261Z,-53
2018-07-05T11:37:41.883Z,-52
2018-07-05T11:38:43.177Z,-51
2018-07-05T11:39:44.765Z,-53
2018-07-05T11:40:42.552Z,-51
2018-07-05T11:42:47.825Z,-52
2018-07-05T11:43:48.189Z,-52
2018-07-05T11:44:44.689Z,-52
2018-07-05T11:45:46.009Z,-52
2018-07-05T11:46:45.668Z,-52
2018-07-05T11:47:43.768Z,-51
2018-07-05T11:48:42.205Z,-52
2018-07-05T11:49:39.686Z,-54
2018-07-05T11:50:43.896Z,-59
2018-07-05T11:51:43.287Z,-56
2018-07-05T11:53:50.771Z,-55
2018-07-05T11:54:51.390Z,-54
2018-07-05T11:55:54.050Z,-55
2018-07-05T11:56:51.862Z,-54
2018-07-05T11:57:53.643Z,-55
2018-07-05T11:58:52.552Z,-54
2018-07-05T11:59:56.714Z,-54
2018-07-05T12:00:55.277Z,-54
2018-07-05T12:01:56.981Z,-55
2018-07-05T12:04:07.887Z,-55
2018-07-05T12:05:05.837Z,-55
2018-07-05T12:06:02.062Z,-55
2018-07-05T12:07:01.914Z,-55
2018-07-05T12:08:00.838Z,-54
2018-07-05T12:09:01.474Z,-55
2018-07-05T12:10:00.202Z,-55
2018-07-05T12:10:55.577Z,-55
2018-07-05T12:11:55.167Z,-54
2018-07-05T12:13:01.562Z,-57
2018-07-05T12:14:04.703Z,-59
2018-07-05T12:16:19.442Z,-57
2018-07-05T12:17:17.307Z,-56
2018-07-05T12:18:18.123Z,-56
2018-07-05T12:19:16.390Z,-56
2018-07-05T12:20:33.145Z,-56
2018-07-05T12:21:30.816Z,-56
2018-07-05T12:22:32.075Z,-56
2018-07-05T12:23:31.646Z,-56
2018-07-05T12:24:35.086Z,-53
2018-07-05T12:25:30.272Z,-55
2018-07-05T12:26:34.343Z,-55
2018-07-05T12:27:33.279Z,-55
2018-07-05T12:28:32.451Z,-55
2018-07-05T12:29:34.706Z,-55
2018-07-05T12:30:30.231Z,-55
2018-07-05T12:32:48.621Z,-57
2018-07-05T12:33:51.107Z,-56
2018-07-05T12:34:45.980Z,-56
2018-07-05T12:35:43.850Z,-55
2018-07-05T12:36:48.089Z,-56
2018-07-05T12:37:58.894Z,-55
2018-07-05T12:39:03.077Z,-56
2018-07-05T12:40:01.235Z,-56
2018-07-05T12:41:01.224Z,-55
2018-07-05T12:42:05.515Z,-61
2018-07-05T12:43:05.261Z,-59
2018-07-05T12:44:02.921Z,-60
2018-07-05T12:46:13.549Z,-59
2018-07-05T12:47:11.323Z,-59
2018-07-05T12:48:12.266Z,-61
2018-07-05T12:49:07.506Z,-61
2018-07-05T12:50:05.602Z,-60
2018-07-05T12:51:03.218Z,-59
2018-07-05T12:52:06.682Z,-61
2018-07-05T12:53:04.405Z,-59
2018-07-05T12:54:05.659Z,-60
2018-07-05T12:56:13.106Z,-58
2018-07-05T12:57:14.596Z,-57
2018-07-05T12:58:11.003Z,-57
2018-07-05T12:59:10.632Z,-57
2018-07-05T13:00:11.837Z,-58
2018-07-05T13:01:20.456Z,-58
2018-07-05T13:02:25.172Z,-59
2018-07-05T13:03:22.610Z,-60
2018-07-05T13:04:24.876Z,-60
2018-07-05T13:05:30.932Z,-61
2018-07-05T13:06:30.715Z,-59
2018-07-05T13:08:38.048Z,-59
2018-07-05T13:09:35.702Z,-60
2018-07-05T13:10:33.732Z,-59
2018-07-05T13:11:39.102Z,-59
2018-07-05T13:12:36.417Z,-60
2018-07-05T13:13:34.119Z,-51
2018-07-05T13:14:33.846Z,-51
2018-07-05T13:15:31.862Z,-52
2018-07-05T13:16:30.867Z,-62
2018-07-05T13:17:33.919Z,-58
2018-07-05T13:19:46.111Z,-60
2018-07-05T13:20:48.084Z,-57
2018-07-05T13:21:49.304Z,-58
2018-07-05T13:22:45.039Z,-58
2018-07-05T13:23:50.057Z,-59
2018-07-05T13:24:53.279Z,-58
2018-07-05T13:25:54.418Z,-58
2018-07-05T13:26:51.782Z,-58
2018-07-05T13:27:51.721Z,-57
2018-07-05T13:28:52.637Z,-57
2018-07-05T13:29:53.200Z,-57
2018-07-05T13:32:07.685Z,-61
2018-07-05T13:33:12.566Z,-59
2018-07-05T13:34:10.983Z,-61
2018-07-05T13:35:09.249Z,-60
2018-07-05T13:36:06.223Z,-56
2018-07-05T13:37:05.102Z,-57
2018-07-05T13:38:02.934Z,-58
2018-07-05T13:39:04.644Z,-56
2018-07-05T13:40:02.218Z,-57
2018-07-05T13:40:57.902Z,-56
2018-07-05T13:41:58.603Z,-56
2018-07-05T13:43:00.105Z,-57
2018-07-05T13:43:56.408Z,-59
2018-07-05T13:44:56.925Z,-57
2018-07-05T13:47:06.443Z,-57
2018-07-05T13:48:04.192Z,-57
2018-07-05T13:49:06.292Z,-58
2018-07-05T13:50:07.708Z,-60
2018-07-05T13:51:07.045Z,-59
2018-07-05T13:52:09.266Z,-61
2018-07-05T13:53:07.902Z,-57
2018-07-05T13:54:09.282Z,-58
2018-07-05T13:55:11.036Z,-59
2018-07-05T13:56:11.485Z,-58
2018-07-05T13:57:09.075Z,-58
2018-07-05T13:58:09.524Z,-58
2018-07-05T13:59:13.017Z,-59
2018-07-05T14:00:13.998Z,-57
2018-07-05T14:01:10.244Z,-57
2018-07-05T14:02:10.455Z,-56
2018-07-05T14:04:25.183Z,-59
2018-07-05T14:05:31.841Z,-58
2018-07-05T14:06:34.227Z,-59
2018-07-05T14:07:36.189Z,-59
2018-07-05T14:08:32.322Z,-59
2018-07-05T14:09:32.939Z,-59
2018-07-05T14:10:31.424Z,-60
2018-07-05T14:11:29.201Z,-59
2018-07-05T14:12:27.047Z,-59
2018-07-05T14:13:27.890Z,-60
2018-07-05T14:14:27.703Z,-59
2018-07-05T14:15:30.910Z,-62
2018-07-05T14:16:43.844Z,-58
2018-07-05T14:17:41.056Z,-58
2018-07-05T14:18:41.475Z,-60
2018-07-05T14:20:53.350Z,-58
2018-07-05T14:21:51.050Z,-56
2018-07-05T14:22:49.593Z,-56
2018-07-05T14:23:51.687Z,-57
2018-07-05T14:24:51.917Z,-57
2018-07-05T14:25:54.688Z,-58
2018-07-05T14:26:52.669Z,-56
2018-07-05T14:27:57.563Z,-57
2018-07-05T14:28:56.435Z,-56
2018-07-05T14:29:56.513Z,-56
2018-07-05T14:30:55.403Z,-57
2018-07-05T14:31:52.983Z,-57
2018-07-05T14:32:54.657Z,-58
2018-07-05T14:33:55.994Z,-58
2018-07-05T14:36:01.125Z,-57
2018-07-05T14:37:05.407Z,-57
2018-07-05T14:38:06.492Z,-57
2018-07-05T14:39:04.264Z,-58
2018-07-05T14:40:05.139Z,-51
2018-07-05T14:41:04.877Z,-51
2018-07-05T14:42:02.512Z,-51
2018-07-05T14:43:06.799Z,-51
2018-07-05T14:44:15.185Z,-51
2018-07-05T14:45:15.095Z,-52
2018-07-05T14:46:10.331Z,-51
2018-07-05T14:47:14.800Z,-51
2018-07-05T14:49:19.455Z,-58
2018-07-05T14:50:25.929Z,-56
2018-07-05T14:51:24.769Z,-57
2018-07-05T14:52:21.405Z,-57
2018-07-05T14:53:34.302Z,-60
2018-07-05T14:54:26.318Z,-61
2018-07-05T14:55:27.429Z,-61
2018-07-05T14:56:30.474Z,-59
2018-07-05T14:57:29.112Z,-60
2018-07-05T14:58:27.825Z,-59
2018-07-05T14:59:30.181Z,-60
2018-07-05T15:00:29.762Z,-60
2018-07-05T15:01:30.037Z,-59
2018-07-05T15:02:24.741Z,-59
2018-07-05T15:04:40.349Z,-59
2018-07-05T15:05:42.104Z,-59
2018-07-05T15:06:38.728Z,-57
2018-07-05T15:07:38.754Z,-59
2018-07-05T15:08:43.551Z,-58